Aventura, Florida
Current Conditions -  °F | °C
As of 2:15 AM on Sunday 23 Nov 2014 (Local Time) from KHWO Reporting Station
Light Rain Light Rain  
Wind Chill: 77°   Ceiling: 3300
Heat Index: 79°   Visibility: 10mi
Dew Point: 71°   Wind: 15mph
Humidity: 82%   Direction: 120°ESE
Pressure: 30.04"   Gusts: NA
Location:  25.9536°N, 80.1568°W
Report Text: KHWO 230715Z AUTO 12013KT 10SM -RA SCT018 BKN033 BKN047 25/22 A3004 RMK AO2 RAB15 P0000 T02500217
Loading
Personal Weather Stations






























Interactive Weather Map New forecast layout! Learn more

10-Day Weather Forecast

Advertisements
Track Severe Weather on mobile